createdAt,value
2023-01-30T00:01:29.006Z,71.07
2023-01-30T00:03:57.185Z,71.16
2023-01-30T00:06:26.584Z,71.18
2023-01-30T00:08:54.554Z,71.27
2023-01-30T00:11:22.959Z,71.11
2023-01-30T00:13:51.987Z,71.42
2023-01-30T00:16:20.336Z,71.52
2023-01-30T00:18:48.379Z,71.50
2023-01-30T00:21:16.757Z,71.63
2023-01-30T00:23:45.349Z,71.49
2023-01-30T00:26:14.231Z,72.34
2023-01-30T00:28:43.662Z,71.68
2023-01-30T00:31:12.044Z,71.73
2023-01-30T00:33:40.053Z,71.88
2023-01-30T00:36:10.207Z,72.22
2023-01-30T00:38:38.904Z,72.41
2023-01-30T00:41:11.039Z,72.33
2023-01-30T00:43:57.466Z,72.74
2023-01-30T00:46:52.986Z,72.01
2023-01-30T00:49:21.573Z,70.82
2023-01-30T00:51:51.936Z,71.07
2023-01-30T00:54:19.866Z,72.50
2023-01-30T00:56:49.037Z,72.51
2023-01-30T01:53:27.348Z,73.13
2023-01-30T01:55:58.849Z,74.08
2023-01-30T01:58:35.975Z,74.16
2023-01-30T02:01:05.061Z,74.13
2023-01-30T02:03:38.132Z,73.66
2023-01-30T02:06:08.534Z,75.32
2023-01-30T02:08:43.717Z,75.75
2023-01-30T02:11:35.247Z,75.48
2023-01-30T02:14:07.559Z,75.22
2023-01-30T02:16:37.866Z,76.39
2023-01-30T02:19:26.298Z,75.40
2023-01-30T02:22:16.347Z,75.41
2023-01-30T02:25:09.099Z,75.65
2023-01-30T02:28:03.729Z,75.94
2023-01-30T02:31:02.107Z,74.97
2023-01-30T02:33:44.926Z,73.57
2023-01-30T02:36:18.822Z,74.81
2023-01-30T02:39:25.937Z,75.59
2023-01-30T02:42:12.251Z,76.44
2023-01-30T02:45:06.719Z,75.53
2023-01-30T02:47:38.282Z,75.89
2023-01-30T02:50:54.459Z,75.18
2023-01-30T02:53:22.821Z,75.04
2023-01-30T02:55:51.317Z,75.37
2023-01-30T02:58:24.537Z,75.49
2023-01-30T03:01:08.002Z,74.41
2023-01-30T03:03:36.008Z,74.28
2023-01-30T03:06:10.208Z,75.05
2023-01-30T03:09:10.251Z,73.87
2023-01-30T03:12:02.791Z,75.68
2023-01-30T03:14:52.067Z,74.58
2023-01-30T03:17:23.596Z,73.67
2023-01-30T03:19:55.545Z,75.10
2023-01-30T03:22:23.921Z,75.66
2023-01-30T03:24:54.102Z,75.72
2023-01-30T03:27:23.282Z,76.31
2023-01-30T03:29:51.298Z,75.94
2023-01-30T03:32:19.693Z,75.84
2023-01-30T03:34:48.134Z,75.72
2023-01-30T03:37:16.609Z,75.18
2023-01-30T03:39:44.697Z,74.91
2023-01-30T03:42:16.983Z,75.00
2023-01-30T03:44:45.060Z,74.68
2023-01-30T03:47:14.839Z,75.33
2023-01-30T03:49:43.278Z,75.35
2023-01-30T03:52:13.006Z,75.27
2023-01-30T03:54:41.046Z,75.10
2023-01-30T03:57:10.007Z,75.94
2023-01-30T03:59:38.101Z,75.46
2023-01-30T04:02:10.425Z,75.77
2023-01-30T04:04:38.552Z,76.01
2023-01-30T04:07:10.067Z,75.75
2023-01-30T04:09:40.399Z,76.67
2023-01-30T04:12:10.427Z,77.44
2023-01-30T04:14:45.019Z,77.79
2023-01-30T04:17:31.817Z,77.79
2023-01-30T04:20:33.900Z,77.22
2023-01-30T04:23:02.692Z,77.12
2023-01-30T04:25:32.194Z,77.28
2023-01-30T04:28:01.881Z,77.70
2023-01-30T04:30:35.065Z,77.21
2023-01-30T04:33:22.128Z,77.76
2023-01-30T04:35:54.307Z,76.82
2023-01-30T04:38:25.101Z,77.19
2023-01-30T04:40:56.574Z,77.92
2023-01-30T04:43:29.174Z,76.66
2023-01-30T04:46:15.642Z,76.48
2023-01-30T04:48:44.286Z,76.48
2023-01-30T04:51:12.663Z,76.20
2023-01-30T04:53:40.967Z,76.49
2023-01-30T04:56:09.890Z,77.41
2023-01-30T04:58:39.396Z,77.13
2023-01-30T05:01:14.355Z,76.22
2023-01-30T05:03:42.864Z,76.69
2023-01-30T05:06:10.958Z,76.32
2023-01-30T05:08:40.633Z,76.05
2023-01-30T05:11:08.548Z,76.05
2023-01-30T05:13:36.844Z,75.77
2023-01-30T05:16:05.062Z,75.66
2023-01-30T05:18:34.285Z,75.79
2023-01-30T05:21:23.755Z,75.95
2023-01-30T05:23:55.800Z,74.91
2023-01-30T05:26:25.296Z,76.03
2023-01-30T05:28:58.166Z,75.82
2023-01-30T05:31:26.312Z,74.93
2023-01-30T05:33:54.667Z,73.51
2023-01-30T05:36:24.261Z,74.33
2023-01-30T05:38:52.672Z,74.05
2023-01-30T05:41:20.572Z,74.32
2023-01-30T05:43:52.026Z,74.77
2023-01-30T05:46:20.332Z,76.06
2023-01-30T05:48:48.747Z,76.92
2023-01-30T05:51:23.080Z,76.80
2023-01-30T05:53:53.277Z,76.92
2023-01-30T05:56:21.346Z,76.46
2023-01-30T05:58:56.772Z,76.47
2023-01-30T06:01:25.394Z,76.67
2023-01-30T06:03:54.292Z,76.74
2023-01-30T06:06:23.677Z,76.08
2023-01-30T06:08:54.775Z,75.70
2023-01-30T06:11:24.244Z,76.06
2023-01-30T06:13:53.823Z,76.42
2023-01-30T06:16:21.995Z,75.63
2023-01-30T06:18:51.619Z,75.96
2023-01-30T06:21:19.517Z,76.03
2023-01-30T06:23:47.897Z,76.66
2023-01-30T06:26:15.985Z,77.56
2023-01-30T06:28:44.496Z,75.94
2023-01-30T06:31:12.597Z,74.61
2023-01-30T06:33:40.950Z,75.93
2023-01-30T06:36:09.263Z,76.02
2023-01-30T06:38:37.601Z,75.93
2023-01-30T06:41:05.910Z,74.91
2023-01-30T06:43:36.008Z,75.62
2023-01-30T06:46:04.128Z,75.57
2023-01-30T06:48:32.828Z,75.46
2023-01-30T06:51:00.806Z,75.19
2023-01-30T06:53:31.278Z,75.47
2023-01-30T06:56:00.150Z,76.34
2023-01-30T06:58:28.647Z,76.17
2023-01-30T07:00:56.814Z,75.56
2023-01-30T07:03:25.226Z,75.90
2023-01-30T07:05:53.402Z,75.40
2023-01-30T07:08:24.308Z,76.00
2023-01-30T07:10:52.412Z,75.41
2023-01-30T07:13:20.802Z,75.58
2023-01-30T07:15:48.872Z,76.45
2023-01-30T07:18:17.276Z,76.83
2023-01-30T07:20:51.188Z,75.95
2023-01-30T07:23:20.807Z,76.35
2023-01-30T07:25:48.678Z,76.50
2023-01-30T07:29:07.196Z,75.49
2023-01-30T07:31:35.197Z,76.52
2023-01-30T07:34:03.653Z,76.00
2023-01-30T07:36:33.863Z,74.19
2023-01-30T07:39:04.444Z,73.40
2023-01-30T07:41:32.391Z,72.88
2023-01-30T07:44:00.930Z,71.77
2023-01-30T07:46:35.337Z,67.93
2023-01-30T07:49:06.276Z,64.88
2023-01-30T07:51:34.240Z,66.29
2023-01-30T07:54:04.390Z,66.93
2023-01-30T07:56:32.402Z,68.06
2023-01-30T07:59:00.741Z,68.56
2023-01-30T08:01:29.001Z,68.65
2023-01-30T08:03:57.503Z,69.03
2023-01-30T08:06:25.585Z,68.09
2023-01-30T08:08:54.393Z,67.20
2023-01-30T08:11:22.456Z,67.27
2023-01-30T08:13:50.930Z,66.91
2023-01-30T08:16:18.969Z,67.03
2023-01-30T08:18:47.292Z,66.96
2023-01-30T08:21:15.304Z,66.87
2023-01-30T08:23:43.929Z,65.76
2023-01-30T08:26:11.904Z,66.19
2023-01-30T08:28:40.594Z,65.99
2023-01-30T08:31:12.867Z,68.27
2023-01-30T08:33:41.311Z,68.45
2023-01-30T08:36:09.905Z,68.93
2023-01-30T08:38:38.319Z,68.12
2023-01-30T08:41:08.489Z,69.72
2023-01-30T08:43:37.160Z,71.67
2023-01-30T08:46:05.265Z,72.72
2023-01-30T08:48:47.430Z,72.89
2023-01-30T08:51:16.866Z,73.52
2023-01-30T08:53:46.135Z,74.12
2023-01-30T08:56:14.550Z,75.93
2023-01-30T08:58:44.071Z,76.44
2023-01-30T09:01:12.335Z,74.83
2023-01-30T09:03:40.923Z,72.15
2023-01-30T09:06:09.663Z,68.98
2023-01-30T09:08:38.081Z,66.08
2023-01-30T09:11:06.415Z,64.86
2023-01-30T09:13:35.858Z,63.54
2023-01-30T09:16:07.333Z,62.18
2023-01-30T09:18:39.731Z,59.01
2023-01-30T09:21:08.190Z,61.85
2023-01-30T09:23:37.270Z,63.45
2023-01-30T09:26:06.930Z,62.97
2023-01-30T09:28:35.643Z,61.99
2023-01-30T09:31:03.900Z,61.22
2023-01-30T09:33:32.381Z,61.69
2023-01-30T09:36:00.578Z,59.43
2023-01-30T09:38:28.873Z,57.92
2023-01-30T09:41:00.033Z,57.98
2023-01-30T09:43:37.494Z,54.92
2023-01-30T09:46:22.574Z,56.39
2023-01-30T09:49:15.629Z,56.86
2023-01-30T09:52:26.380Z,56.91
2023-01-30T09:55:35.840Z,55.88
2023-01-30T09:58:03.913Z,55.35
2023-01-30T10:00:44.739Z,56.04
2023-01-30T10:03:20.123Z,56.51
2023-01-30T10:06:03.083Z,56.00
2023-01-30T10:08:50.399Z,56.36
2023-01-30T10:11:41.036Z,58.03
2023-01-30T10:14:15.078Z,59.20
2023-01-30T10:17:01.524Z,58.95
2023-01-30T10:20:06.989Z,59.26
2023-01-30T10:22:52.899Z,61.86
2023-01-30T10:25:39.582Z,61.22
2023-01-30T10:28:24.428Z,60.51
2023-01-30T10:31:01.190Z,60.43
2023-01-30T10:33:35.967Z,62.23
2023-01-30T10:36:23.840Z,61.07
2023-01-30T10:38:53.548Z,58.99
2023-01-30T10:41:27.218Z,57.95
2023-01-30T10:44:11.555Z,57.40
2023-01-30T10:47:22.928Z,57.99
2023-01-30T10:50:06.199Z,58.97
2023-01-30T10:52:42.116Z,57.01
2023-01-30T10:55:38.004Z,56.27
2023-01-30T10:58:18.241Z,58.85
2023-01-30T11:01:10.628Z,56.65
2023-01-30T11:03:48.648Z,56.79
2023-01-30T11:06:24.092Z,54.44
2023-01-30T11:08:54.199Z,54.17
2023-01-30T11:11:30.714Z,52.14
2023-01-30T11:14:10.652Z,50.86
2023-01-30T11:16:52.197Z,52.96
2023-01-30T11:19:34.932Z,51.74
2023-01-30T11:22:06.253Z,50.99
2023-01-30T11:24:43.963Z,49.22
2023-01-30T11:27:19.526Z,47.80
2023-01-30T11:29:48.621Z,47.78
2023-01-30T11:32:29.030Z,50.13
2023-01-30T11:35:20.708Z,49.49
2023-01-30T11:37:51.570Z,51.15
2023-01-30T11:40:25.975Z,51.26
2023-01-30T11:43:03.611Z,51.26
2023-01-30T11:45:39.414Z,47.54
2023-01-30T11:48:33.143Z,45.81
2023-01-30T11:51:07.136Z,45.08
2023-01-30T11:54:04.628Z,43.76
2023-01-30T11:56:57.230Z,42.76
2023-01-30T11:59:31.123Z,42.33
2023-01-30T12:02:17.433Z,41.20
2023-01-30T12:04:47.493Z,41.49
2023-01-30T12:07:24.059Z,40.63
2023-01-30T12:09:54.417Z,40.21
2023-01-30T12:12:47.956Z,38.72
2023-01-30T12:15:17.364Z,40.03
2023-01-30T12:18:13.160Z,40.89
2023-01-30T12:20:47.473Z,39.74
2023-01-30T12:23:28.021Z,38.17
2023-01-30T12:26:09.381Z,37.29
2023-01-30T12:29:01.125Z,33.36
2023-01-30T12:31:49.233Z,34.17
2023-01-30T12:34:17.551Z,35.25
2023-01-30T12:37:17.728Z,34.41
2023-01-30T12:39:51.855Z,34.20
2023-01-30T12:42:57.462Z,34.09
2023-01-30T12:45:57.313Z,32.66
2023-01-30T12:48:48.308Z,34.59
2023-01-30T12:51:44.722Z,37.70
2023-01-30T12:54:40.940Z,41.53
2023-01-30T12:57:11.611Z,40.03
2023-01-30T12:59:52.950Z,40.43
2023-01-30T13:03:03.199Z,43.47
2023-01-30T13:05:31.753Z,40.29
2023-01-30T13:08:27.251Z,38.63
2023-01-30T13:11:02.412Z,41.60
2023-01-30T13:13:30.444Z,40.37
2023-01-30T13:16:20.846Z,38.29
2023-01-30T13:19:07.961Z,38.47
2023-01-30T13:22:01.080Z,36.04
2023-01-30T13:24:51.510Z,35.82
2023-01-30T13:27:23.164Z,34.16
2023-01-30T13:29:53.434Z,34.21
2023-01-30T13:32:43.007Z,33.33
2023-01-30T13:35:25.147Z,33.13
2023-01-30T13:37:54.847Z,33.42
2023-01-30T13:40:26.646Z,34.47
2023-01-30T13:43:12.243Z,33.55
2023-01-30T13:45:45.825Z,35.48
2023-01-30T13:48:25.752Z,34.12
2023-01-30T13:51:17.806Z,34.43
2023-01-30T13:54:02.021Z,35.98
2023-01-30T13:56:41.821Z,35.59
2023-01-30T13:59:41.782Z,36.15
2023-01-30T14:02:26.008Z,35.10
2023-01-30T14:04:56.829Z,39.09
2023-01-30T14:07:56.556Z,36.45
2023-01-30T14:10:28.020Z,35.57
2023-01-30T14:12:56.025Z,39.65
2023-01-30T14:15:29.209Z,41.02
2023-01-30T14:18:01.171Z,42.16
2023-01-30T14:20:32.766Z,41.22
2023-01-30T14:23:22.934Z,40.47
2023-01-30T14:25:53.699Z,42.74
2023-01-30T14:28:21.597Z,41.41
2023-01-30T14:30:56.810Z,40.53
2023-01-30T14:33:24.758Z,43.13
2023-01-30T14:35:58.984Z,41.40
2023-01-30T14:38:37.456Z,42.02
2023-01-30T14:41:09.779Z,41.02
2023-01-30T14:43:43.659Z,40.61
2023-01-30T14:46:19.313Z,38.99
2023-01-30T14:48:57.022Z,41.07
2023-01-30T14:51:40.645Z,40.97
2023-01-30T14:54:15.284Z,41.38
2023-01-30T14:57:03.653Z,41.06
2023-01-30T15:00:14.169Z,42.11
2023-01-30T15:02:51.696Z,41.82
2023-01-30T15:05:33.573Z,39.74
2023-01-30T15:08:09.702Z,42.92
2023-01-30T15:11:19.628Z,41.63
2023-01-30T15:14:17.444Z,38.74
2023-01-30T15:17:09.629Z,39.27
2023-01-30T15:19:40.610Z,39.85
2023-01-30T15:22:42.103Z,41.85
2023-01-30T15:25:19.171Z,43.47
2023-01-30T15:28:03.416Z,41.38
2023-01-30T15:31:02.642Z,40.25
2023-01-30T15:33:32.256Z,39.64
2023-01-30T15:36:19.665Z,39.52
2023-01-30T15:38:56.640Z,41.57
2023-01-30T15:41:25.439Z,43.14
2023-01-30T15:44:29.699Z,45.85
2023-01-30T15:47:02.434Z,49.99
2023-01-30T15:50:03.651Z,50.94
2023-01-30T15:52:54.462Z,53.51
2023-01-30T15:55:48.777Z,53.41
2023-01-30T15:58:20.949Z,53.95
2023-01-30T16:01:00.879Z,55.95
2023-01-30T16:03:36.954Z,57.08
2023-01-30T16:06:05.400Z,57.77
2023-01-30T16:08:36.506Z,57.01
2023-01-30T16:11:04.630Z,58.85
2023-01-30T16:13:35.850Z,58.12
2023-01-30T16:16:18.746Z,57.89
2023-01-30T16:18:56.201Z,56.87
2023-01-30T16:21:34.409Z,56.29
2023-01-30T16:24:07.528Z,56.64
2023-01-30T16:26:36.844Z,56.88
2023-01-30T16:29:08.139Z,56.56
2023-01-30T16:31:41.288Z,57.51
2023-01-30T16:34:35.723Z,57.57
2023-01-30T16:37:18.631Z,57.73
2023-01-30T16:40:04.698Z,57.60
2023-01-30T16:42:32.638Z,58.15
2023-01-30T16:45:13.253Z,56.77
2023-01-30T16:47:41.341Z,56.50
2023-01-30T16:50:23.197Z,57.16
2023-01-30T16:52:55.097Z,56.13
2023-01-30T16:55:27.238Z,56.56
2023-01-30T16:58:00.522Z,56.46
2023-01-30T17:00:38.316Z,57.41
2023-01-30T17:03:20.512Z,57.85
2023-01-30T17:05:49.801Z,58.73
2023-01-30T17:08:45.409Z,58.46
2023-01-30T17:11:36.669Z,59.30
2023-01-30T17:14:24.892Z,59.40
2023-01-30T17:17:01.811Z,60.31
2023-01-30T17:19:30.309Z,61.30
2023-01-30T17:22:01.667Z,61.77
2023-01-30T17:24:29.719Z,61.72
2023-01-30T17:27:04.352Z,62.57
2023-01-30T17:29:43.283Z,62.16
2023-01-30T17:32:15.502Z,62.26
2023-01-30T17:34:43.512Z,61.79
2023-01-30T17:37:21.527Z,62.57
2023-01-30T17:39:50.101Z,62.69
2023-01-30T17:42:18.837Z,62.70
2023-01-30T17:44:47.097Z,62.28
2023-01-30T17:47:15.021Z,63.03
2023-01-30T17:49:44.279Z,63.24
2023-01-30T17:52:14.007Z,62.33
2023-01-30T17:54:42.320Z,63.27
2023-01-30T17:57:16.417Z,63.00
2023-01-30T17:59:44.678Z,63.57
2023-01-30T18:02:13.479Z,62.66
2023-01-30T18:04:41.860Z,62.23
2023-01-30T18:07:14.539Z,62.90
2023-01-30T18:09:43.289Z,62.58
2023-01-30T18:12:11.273Z,62.79
2023-01-30T18:14:39.538Z,62.77
2023-01-30T18:17:07.729Z,63.54
2023-01-30T18:19:36.109Z,63.31
2023-01-30T18:22:04.314Z,63.91
2023-01-30T18:24:34.529Z,64.23
2023-01-30T18:27:02.469Z,64.51
2023-01-30T18:29:30.773Z,65.08
2023-01-30T18:32:05.166Z,65.02
2023-01-30T18:34:33.785Z,64.92
2023-01-30T18:37:01.808Z,65.01
2023-01-30T18:39:32.070Z,65.35
2023-01-30T18:42:02.154Z,65.21
2023-01-30T18:44:30.617Z,65.28
2023-01-30T18:46:58.728Z,64.88
2023-01-30T18:49:27.184Z,65.49
2023-01-30T18:51:55.343Z,66.18
2023-01-30T18:54:23.808Z,66.09
2023-01-30T18:56:51.986Z,66.19
2023-01-30T18:59:20.422Z,66.70
2023-01-30T19:01:48.494Z,67.13
2023-01-30T19:04:16.981Z,66.52
2023-01-30T19:06:45.002Z,67.14
2023-01-30T19:09:16.205Z,68.36
2023-01-30T19:12:02.803Z,67.59
2023-01-30T19:14:31.181Z,68.04
2023-01-30T19:16:59.213Z,68.57
2023-01-30T19:19:28.560Z,69.11
2023-01-30T19:21:56.503Z,68.73
2023-01-30T19:24:25.132Z,69.29
2023-01-30T19:26:53.306Z,69.24
2023-01-30T19:29:21.813Z,69.85
2023-01-30T19:31:50.300Z,69.95
2023-01-30T19:34:18.731Z,69.79
2023-01-30T19:36:47.083Z,69.19
2023-01-30T19:39:15.442Z,69.94
2023-01-30T19:41:43.387Z,69.07
2023-01-30T19:44:12.180Z,68.58
2023-01-30T19:46:40.159Z,69.24
2023-01-30T19:49:11.632Z,68.83
2023-01-30T19:51:41.020Z,68.81
2023-01-30T19:54:12.267Z,69.88
2023-01-30T19:56:42.094Z,70.88
2023-01-30T19:59:13.370Z,72.05
2023-01-30T20:01:41.405Z,72.22
2023-01-30T20:04:09.979Z,71.71
2023-01-30T20:06:43.426Z,70.95
2023-01-30T20:09:12.923Z,72.39
2023-01-30T20:11:42.056Z,72.32
2023-01-30T20:14:11.347Z,72.90
2023-01-30T20:16:40.068Z,73.36
2023-01-30T20:19:13.343Z,72.64
2023-01-30T20:21:42.272Z,72.64
2023-01-30T20:24:13.528Z,72.58
2023-01-30T20:26:42.476Z,72.63
2023-01-30T20:29:12.167Z,72.76
2023-01-30T20:31:40.245Z,73.09
2023-01-30T20:34:12.620Z,73.03
2023-01-30T20:36:41.093Z,73.76
2023-01-30T20:39:09.524Z,73.54
2023-01-30T20:41:38.054Z,74.25
2023-01-30T20:44:09.109Z,74.27
2023-01-30T20:46:41.837Z,74.78
2023-01-30T20:49:21.439Z,74.17
2023-01-30T20:51:52.056Z,73.93
2023-01-30T20:54:22.768Z,75.12
2023-01-30T20:56:53.643Z,74.49
2023-01-30T20:59:24.541Z,74.90
2023-01-30T21:01:52.989Z,74.65
2023-01-30T21:04:24.653Z,75.09
2023-01-30T21:06:53.066Z,74.57
2023-01-30T21:09:23.405Z,75.10
2023-01-30T21:11:53.224Z,75.04
2023-01-30T21:14:22.070Z,75.32
2023-01-30T21:16:50.137Z,75.05
2023-01-30T21:19:18.838Z,74.24
2023-01-30T21:21:51.625Z,75.39
2023-01-30T21:24:24.053Z,74.83
2023-01-30T21:26:53.274Z,75.17
2023-01-30T21:29:25.679Z,74.73
2023-01-30T21:31:54.439Z,75.58
2023-01-30T21:34:23.479Z,75.38
2023-01-30T21:37:10.188Z,74.92
2023-01-30T21:39:56.860Z,74.46
2023-01-30T21:43:03.359Z,75.07
2023-01-30T21:45:32.065Z,74.40
2023-01-30T21:47:59.954Z,75.63
2023-01-30T21:50:29.298Z,75.46
2023-01-30T21:52:57.380Z,75.56
2023-01-30T21:55:25.933Z,75.78
2023-01-30T21:57:54.032Z,75.96
2023-01-30T22:00:22.464Z,76.04
2023-01-30T22:02:50.873Z,75.61
2023-01-30T22:05:19.683Z,76.23
2023-01-30T22:07:47.905Z,75.53
2023-01-30T22:10:16.548Z,75.01
2023-01-30T22:12:44.431Z,74.62
2023-01-30T22:15:12.763Z,74.83
2023-01-30T22:17:40.715Z,75.70
2023-01-30T22:20:11.057Z,76.03
2023-01-30T22:22:39.705Z,76.75
2023-01-30T22:25:09.604Z,76.44
2023-01-30T22:27:38.458Z,76.61
2023-01-30T22:30:07.179Z,76.06
2023-01-30T22:32:35.083Z,76.21
2023-01-30T22:35:03.447Z,75.85
2023-01-30T22:37:31.341Z,76.60
2023-01-30T22:40:00.689Z,76.95
2023-01-30T22:42:28.634Z,77.19
2023-01-30T22:44:56.866Z,77.31
2023-01-30T22:47:24.884Z,76.79
2023-01-30T22:49:53.231Z,77.32
2023-01-30T22:52:21.093Z,77.12
2023-01-30T22:54:49.423Z,77.83
2023-01-30T22:57:17.405Z,78.02
2023-01-30T22:59:45.674Z,77.55
2023-01-30T23:02:13.654Z,76.27
2023-01-30T23:04:41.971Z,76.67
2023-01-30T23:07:14.077Z,76.95
2023-01-30T23:09:42.403Z,77.21
2023-01-30T23:12:29.166Z,77.48
2023-01-30T23:14:57.493Z,77.28
2023-01-30T23:17:44.016Z,77.00
2023-01-30T23:20:13.991Z,77.81
2023-01-30T23:22:42.025Z,76.77
2023-01-30T23:25:11.326Z,77.28
2023-01-30T23:27:39.204Z,77.62
2023-01-30T23:30:09.399Z,78.52
2023-01-30T23:32:38.098Z,78.04
2023-01-30T23:35:07.188Z,77.83
2023-01-30T23:37:53.350Z,77.87
2023-01-30T23:40:21.598Z,78.12
2023-01-30T23:42:49.669Z,78.52
2023-01-30T23:45:18.231Z,78.73
2023-01-30T23:47:46.361Z,78.83
2023-01-30T23:50:16.238Z,79.54
2023-01-30T23:52:44.828Z,79.41
2023-01-30T23:55:13.250Z,79.28
2023-01-30T23:57:41.239Z,79.78
